createdAt,value
2019-02-24T00:00:02.358Z,0
2019-02-24T00:01:03.041Z,0
2019-02-24T00:02:04.015Z,0
2019-02-24T00:03:04.714Z,0
2019-02-24T00:04:05.400Z,0
2019-02-24T00:05:06.358Z,0
2019-02-24T00:06:06.483Z,0
2019-02-24T00:07:07.721Z,0
2019-02-24T00:08:08.705Z,0
2019-02-24T00:09:09.140Z,0
2019-02-24T00:10:09.947Z,0
2019-02-24T00:11:12.045Z,0
2019-02-24T00:12:13.011Z,0
2019-02-24T00:13:13.463Z,0
2019-02-24T00:14:14.427Z,0
2019-02-24T00:15:15.107Z,0
2019-02-24T00:16:15.276Z,0
2019-02-24T00:17:15.681Z,0
2019-02-24T00:18:16.363Z,0
2019-02-24T00:19:17.344Z,0
2019-02-24T00:20:18.151Z,0
2019-02-24T00:21:19.108Z,0
2019-02-24T00:22:19.511Z,0
2019-02-24T00:23:19.920Z,0
2019-02-24T00:24:20.601Z,0
2019-02-24T00:25:20.731Z,0
2019-02-24T00:26:22.136Z,0
2019-02-24T00:27:22.545Z,0
2019-02-24T00:28:23.227Z,0
2019-02-24T00:29:24.384Z,0
2019-02-24T00:30:25.478Z,0
2019-02-24T00:31:25.883Z,0
2019-02-24T00:32:26.566Z,0
2019-02-24T00:33:27.525Z,0
2019-02-24T00:34:27.931Z,0
2019-02-24T00:35:29.169Z,0
2019-02-24T00:36:29.858Z,0
2019-02-24T00:37:29.983Z,0
2019-02-24T00:38:31.389Z,0
2019-02-24T00:39:32.347Z,0
2019-02-24T00:40:32.726Z,0
2019-02-24T00:41:33.130Z,0
2019-02-24T00:42:35.372Z,0
2019-02-24T00:43:34.781Z,0
2019-02-24T00:44:35.465Z,0
2019-02-24T00:45:35.864Z,0
2019-02-24T00:46:36.547Z,0
2019-02-24T00:47:36.677Z,0
2019-02-24T00:48:37.083Z,0
2019-02-24T00:49:38.487Z,0
2019-02-24T00:50:38.767Z,0
2019-02-24T00:51:39.172Z,0
2019-02-24T00:52:39.604Z,0
2019-02-24T00:53:41.005Z,0
2019-02-24T00:54:41.410Z,0
2019-02-24T00:55:41.816Z,0
2019-02-24T00:56:42.944Z,0
2019-02-24T00:57:44.900Z,0
2019-02-24T00:58:45.310Z,0
2019-02-24T00:59:45.714Z,0
2019-02-24T01:00:47.433Z,0
2019-02-24T01:01:47.834Z,0
2019-02-24T01:02:48.243Z,0
2019-02-24T01:03:49.652Z,0
2019-02-24T01:04:50.051Z,0
2019-02-24T01:05:50.733Z,0
2019-02-24T01:06:50.873Z,0
2019-02-24T01:07:51.558Z,0
2019-02-24T01:08:52.243Z,0
2019-02-24T01:09:52.368Z,0
2019-02-24T01:10:52.901Z,0
2019-02-24T01:11:53.856Z,0
2019-02-24T01:12:53.982Z,0
2019-02-24T01:13:55.673Z,0
2019-02-24T01:14:56.356Z,0
2019-02-24T01:15:57.040Z,0
2019-02-24T01:16:57.442Z,0
2019-02-24T01:17:57.849Z,0
2019-02-24T01:18:58.531Z,0
2019-02-24T01:19:59.937Z,0
2019-02-24T01:21:00.044Z,0
2019-02-24T01:22:01.169Z,0
2019-02-24T01:23:02.865Z,0
2019-02-24T01:24:03.031Z,0
2019-02-24T01:25:03.715Z,0
2019-02-24T01:26:04.393Z,0
2019-02-24T01:27:05.360Z,0
2019-02-24T01:28:05.771Z,0
2019-02-24T01:29:06.456Z,0
2019-02-24T01:30:07.138Z,0
2019-02-24T01:31:08.247Z,0
2019-02-24T01:32:08.929Z,0
2019-02-24T01:33:10.070Z,0
2019-02-24T01:34:10.751Z,0
2019-02-24T01:35:11.436Z,0
2019-02-24T01:36:12.119Z,0
2019-02-24T01:37:12.523Z,0
2019-02-24T01:38:12.930Z,0
2019-02-24T01:39:13.612Z,0
2019-02-24T01:40:14.857Z,0
2019-02-24T01:41:16.252Z,0
2019-02-24T01:42:15.933Z,0
2019-02-24T01:43:16.890Z,0
2019-02-24T01:44:17.572Z,0
2019-02-24T01:45:18.533Z,0
2019-02-24T01:46:18.217Z,0
2019-02-24T01:47:19.621Z,0
2019-02-24T01:48:22.307Z,0
2019-02-24T01:49:20.721Z,0
2019-02-24T01:50:21.403Z,0
2019-02-24T01:51:23.342Z,0
2019-02-24T01:52:22.468Z,0
2019-02-24T01:53:24.146Z,0
2019-02-24T01:54:24.839Z,0
2019-02-24T01:55:25.337Z,0
2019-02-24T01:56:25.742Z,0
2019-02-24T01:57:26.702Z,0
2019-02-24T01:58:39.131Z,0
2019-02-24T01:59:39.954Z,0
2019-02-24T02:00:40.377Z,0
2019-02-24T02:01:40.652Z,0
2019-02-24T02:02:42.058Z,0
2019-02-24T02:03:42.463Z,0
2019-02-24T02:04:43.146Z,0
2019-02-24T02:05:44.110Z,0
2019-02-24T02:06:44.103Z,0
2019-02-24T02:07:44.507Z,0
2019-02-24T02:08:45.473Z,0
2019-02-24T02:09:46.072Z,0
2019-02-24T02:10:47.472Z,0
2019-02-24T02:11:48.432Z,0
2019-02-24T02:12:49.114Z,0
2019-02-24T02:13:49.571Z,0
2019-02-24T02:14:50.530Z,0
2019-02-24T02:15:51.656Z,0
2019-02-24T02:16:52.057Z,0
2019-02-24T02:17:53.179Z,0
2019-02-24T02:18:54.343Z,0
2019-02-24T02:19:55.149Z,0
2019-02-24T02:20:55.550Z,0
2019-02-24T02:21:55.679Z,0
2019-02-24T02:22:56.923Z,0
2019-02-24T02:23:57.090Z,0
2019-02-24T02:24:58.226Z,0
2019-02-24T02:25:59.353Z,0
2019-02-24T02:27:01.039Z,0
2019-02-24T02:28:01.453Z,0
2019-02-24T02:29:02.133Z,0
2019-02-24T02:30:03.903Z,0
2019-02-24T02:31:04.239Z,0
2019-02-24T02:32:04.951Z,0
2019-02-24T02:33:04.944Z,0
2019-02-24T02:34:05.902Z,0
2019-02-24T02:35:06.138Z,0
2019-02-24T02:36:06.547Z,0
2019-02-24T02:37:07.964Z,0
2019-02-24T02:38:09.210Z,0
2019-02-24T02:39:09.462Z,0
2019-02-24T02:40:09.826Z,0
2019-02-24T02:41:10.231Z,0
2019-02-24T02:42:10.915Z,0
2019-02-24T02:43:11.339Z,0
2019-02-24T02:44:12.023Z,0
2019-02-24T02:45:12.439Z,0
2019-02-24T02:46:13.684Z,0
2019-02-24T02:47:14.396Z,0
2019-02-24T02:48:15.358Z,0
2019-02-24T02:49:16.054Z,0
2019-02-24T02:50:17.735Z,0
2019-02-24T02:51:17.695Z,0
2019-02-24T02:52:18.694Z,0
2019-02-24T02:53:18.819Z,0
2019-02-24T02:54:19.785Z,0
2019-02-24T02:55:20.596Z,0
2019-02-24T02:56:20.878Z,0
2019-02-24T02:57:20.849Z,0
2019-02-24T02:58:23.089Z,0
2019-02-24T02:59:23.326Z,0
2019-02-24T03:00:24.254Z,0
2019-02-24T03:01:25.048Z,0
2019-02-24T03:02:26.197Z,0
2019-02-24T03:03:27.615Z,0
2019-02-24T03:04:27.587Z,0
2019-02-24T03:05:28.832Z,0
2019-02-24T03:06:29.246Z,0
2019-02-24T03:07:30.239Z,0
2019-02-24T03:08:30.646Z,0
2019-02-24T03:09:32.327Z,0
2019-02-24T03:10:33.994Z,0
2019-02-24T03:11:33.432Z,0
2019-02-24T03:12:35.159Z,0
2019-02-24T03:13:35.842Z,0
2019-02-24T03:14:37.095Z,0
2019-02-24T03:15:37.527Z,0
2019-02-24T03:16:38.223Z,0
2019-02-24T03:17:38.914Z,0
2019-02-24T03:18:39.619Z,0
2019-02-24T03:19:40.858Z,0
2019-02-24T03:20:40.815Z,0
2019-02-24T03:21:41.501Z,0
2019-02-24T03:22:42.202Z,0
2019-02-24T03:23:42.888Z,0
2019-02-24T03:24:43.415Z,0
2019-02-24T03:25:43.383Z,0
2019-02-24T03:26:44.136Z,0
2019-02-24T03:27:44.413Z,0
2019-02-24T03:28:45.228Z,0
2019-02-24T03:29:45.187Z,0
2019-02-24T03:30:46.600Z,0
2019-02-24T03:31:47.979Z,0
2019-02-24T03:32:49.359Z,0
2019-02-24T03:33:50.839Z,0
2019-02-24T03:34:50.092Z,0
2019-02-24T03:35:51.388Z,0
2019-02-24T03:36:51.071Z,0
2019-02-24T03:37:51.477Z,0
2019-02-24T03:38:52.172Z,0
2019-02-24T03:39:52.966Z,0
2019-02-24T03:40:53.635Z,0
2019-02-24T03:41:54.044Z,0
2019-02-24T03:42:55.621Z,0
2019-02-24T03:43:56.025Z,0
2019-02-24T03:44:57.263Z,0
2019-02-24T03:45:56.948Z,0
2019-02-24T03:46:58.356Z,0
2019-02-24T03:47:58.769Z,0
2019-02-24T03:48:59.450Z,0
2019-02-24T03:50:00.363Z,0
2019-02-24T03:51:01.053Z,0
2019-02-24T03:52:02.050Z,0
2019-02-24T03:53:03.582Z,0
2019-02-24T03:54:03.825Z,0
2019-02-24T03:55:05.342Z,0
2019-02-24T03:56:05.873Z,0
2019-02-24T03:57:07.124Z,0
2019-02-24T03:58:07.082Z,0
2019-02-24T03:59:20.062Z,0
2019-02-24T04:00:20.578Z,0
2019-02-24T04:01:21.571Z,0
2019-02-24T04:02:22.539Z,0
2019-02-24T04:03:23.055Z,0
2019-02-24T04:04:23.773Z,0
2019-02-24T04:05:24.459Z,0
2019-02-24T04:06:25.489Z,0
2019-02-24T04:07:25.944Z,0
2019-02-24T04:08:26.910Z,0
2019-02-24T04:09:28.148Z,0
2019-02-24T04:10:28.256Z,0
2019-02-24T04:11:28.959Z,0
2019-02-24T04:12:29.921Z,0
2019-02-24T04:13:30.898Z,0
2019-02-24T04:14:31.865Z,0
2019-02-24T04:15:32.555Z,0
2019-02-24T04:16:32.981Z,0
2019-02-24T04:17:33.987Z,0
2019-02-24T04:18:34.679Z,0
2019-02-24T04:19:36.922Z,0
2019-02-24T04:20:36.731Z,0
2019-02-24T04:21:38.131Z,0
2019-02-24T04:22:39.368Z,0
2019-02-24T04:23:40.060Z,0
2019-02-24T04:24:41.029Z,0
2019-02-24T04:25:41.437Z,0
2019-02-24T04:26:41.841Z,0
2019-02-24T04:27:42.526Z,0
2019-02-24T04:28:43.489Z,0
2019-02-24T04:29:44.450Z,0
2019-02-24T04:30:45.173Z,0
2019-02-24T04:31:45.576Z,0
2019-02-24T04:32:46.261Z,0
2019-02-24T04:33:47.561Z,0
2019-02-24T04:34:48.546Z,0
2019-02-24T04:35:49.551Z,0
2019-02-24T04:36:49.745Z,0
2019-02-24T04:37:50.149Z,0
2019-02-24T04:38:50.829Z,0
2019-02-24T04:39:51.827Z,0
2019-02-24T04:40:51.929Z,0
2019-02-24T04:41:52.620Z,0
2019-02-24T04:42:53.136Z,0
2019-02-24T04:43:53.541Z,0
2019-02-24T04:44:54.578Z,0
2019-02-24T04:45:55.262Z,0
2019-02-24T04:46:55.672Z,0
2019-02-24T04:47:56.628Z,0
2019-02-24T04:48:57.894Z,0
2019-02-24T04:49:58.296Z,0
2019-02-24T04:50:58.556Z,0
2019-02-24T04:51:59.832Z,0
2019-02-24T04:53:00.807Z,0
2019-02-24T04:54:00.932Z,0
2019-02-24T04:55:01.902Z,0
2019-02-24T04:56:03.141Z,0
2019-02-24T04:57:03.216Z,0
2019-02-24T04:58:03.919Z,0
2019-02-24T04:59:04.607Z,0
2019-02-24T05:00:05.291Z,0
2019-02-24T05:01:06.964Z,0
2019-02-24T05:02:07.971Z,0
2019-02-24T05:03:07.984Z,0
2019-02-24T05:04:09.232Z,0
2019-02-24T05:05:09.535Z,0
2019-02-24T05:06:10.510Z,0
2019-02-24T05:07:11.326Z,0
2019-02-24T05:08:12.588Z,0
2019-02-24T05:09:12.833Z,0
2019-02-24T05:10:13.632Z,0
2019-02-24T05:11:13.739Z,0
2019-02-24T05:12:14.430Z,0
2019-02-24T05:13:15.955Z,0
2019-02-24T05:14:15.923Z,0
2019-02-24T05:15:16.881Z,0
2019-02-24T05:16:17.181Z,0
2019-02-24T05:17:18.145Z,0
2019-02-24T05:18:18.830Z,0
2019-02-24T05:19:19.794Z,0
2019-02-24T05:20:21.752Z,0
2019-02-24T05:21:22.197Z,0
2019-02-24T05:22:23.161Z,0
2019-02-24T05:23:24.458Z,0
2019-02-24T05:24:24.585Z,0
2019-02-24T05:25:26.098Z,0
2019-02-24T05:26:25.502Z,0
2019-02-24T05:27:27.181Z,0
2019-02-24T05:28:27.604Z,0
2019-02-24T05:29:28.864Z,0
2019-02-24T05:30:29.396Z,0
2019-02-24T05:31:30.799Z,0
2019-02-24T05:32:31.206Z,0
2019-02-24T05:33:32.896Z,0
2019-02-24T05:34:34.133Z,0
2019-02-24T05:35:34.375Z,4
2019-02-24T05:36:34.779Z,4
2019-02-24T05:37:35.184Z,4
2019-02-24T05:38:35.880Z,0
2019-02-24T05:39:37.127Z,4
2019-02-24T05:40:37.086Z,4
2019-02-24T05:41:38.195Z,4
2019-02-24T05:42:38.162Z,4
2019-02-24T05:43:39.432Z,8
2019-02-24T05:44:39.726Z,8
2019-02-24T05:45:40.964Z,8
2019-02-24T05:46:41.097Z,8
2019-02-24T05:47:42.339Z,12
2019-02-24T05:48:43.874Z,12
2019-02-24T05:49:43.575Z,20
2019-02-24T05:50:45.548Z,20
2019-02-24T05:51:45.635Z,24
2019-02-24T05:52:46.616Z,28
2019-02-24T05:53:47.445Z,32
2019-02-24T05:54:48.131Z,36
2019-02-24T05:55:48.816Z,48
2019-02-24T05:56:49.295Z,52
2019-02-24T05:57:49.985Z,64
2019-02-24T05:58:50.678Z,72
2019-02-24T05:59:57.408Z,80
2019-02-24T06:00:03.740Z,84
2019-02-24T06:01:03.581Z,96
2019-02-24T06:02:04.543Z,108
2019-02-24T06:03:05.787Z,120
2019-02-24T06:04:06.509Z,140
2019-02-24T06:05:07.483Z,152
2019-02-24T06:06:08.174Z,172
2019-02-24T06:07:08.583Z,188
2019-02-24T06:08:10.300Z,208
2019-02-24T06:09:10.434Z,228
2019-02-24T06:10:11.155Z,248
2019-02-24T06:11:13.085Z,272
2019-02-24T06:12:13.502Z,296
2019-02-24T06:13:14.211Z,320
2019-02-24T06:14:15.490Z,344
2019-02-24T06:15:16.451Z,368
2019-02-24T06:16:17.140Z,388
2019-02-24T06:17:17.417Z,416
2019-02-24T06:18:19.264Z,444
2019-02-24T06:19:19.950Z,472
2019-02-24T06:20:20.358Z,504
2019-02-24T06:21:21.739Z,532
2019-02-24T06:22:22.149Z,568
2019-02-24T06:23:22.837Z,604
2019-02-24T06:24:23.845Z,652
2019-02-24T06:25:25.419Z,708
2019-02-24T06:26:25.461Z,780
2019-02-24T06:27:25.896Z,3520
2019-02-24T06:28:27.647Z,6784
2019-02-24T06:29:28.344Z,6856
2019-02-24T06:30:29.872Z,7424
2019-02-24T06:31:29.818Z,6420
2019-02-24T06:32:30.506Z,4140
2019-02-24T06:33:31.748Z,2512
2019-02-24T06:34:32.443Z,2152
2019-02-24T06:35:32.851Z,4352
2019-02-24T06:36:32.982Z,7164
2019-02-24T06:37:34.950Z,5384
2019-02-24T06:38:35.931Z,4172
2019-02-24T06:39:36.619Z,4912
2019-02-24T06:40:37.863Z,5420
2019-02-24T06:41:38.829Z,5096
2019-02-24T06:42:40.102Z,3484
2019-02-24T06:43:40.524Z,6892
2019-02-24T06:44:40.655Z,11940
2019-02-24T06:45:42.343Z,7768
2019-02-24T06:46:42.758Z,3604
2019-02-24T06:47:44.001Z,3620
2019-02-24T06:48:45.020Z,4568
2019-02-24T06:49:45.716Z,6364
2019-02-24T06:50:46.851Z,10520
2019-02-24T06:51:47.811Z,8688
2019-02-24T06:52:48.263Z,5424
2019-02-24T06:53:48.674Z,4472
2019-02-24T06:54:48.806Z,7444
2019-02-24T06:55:50.772Z,8924
2019-02-24T06:56:50.905Z,8432
2019-02-24T06:57:51.315Z,11568
2019-02-24T06:58:52.447Z,11252
2019-02-24T06:59:53.136Z,7916
2019-02-24T07:00:54.267Z,5992
2019-02-24T07:01:55.400Z,6484
2019-02-24T07:02:56.091Z,12856
2019-02-24T07:03:57.058Z,16992
2019-02-24T07:04:57.470Z,18720
2019-02-24T07:05:58.195Z,14152
2019-02-24T07:06:58.612Z,7504
2019-02-24T07:07:59.592Z,5936
2019-02-24T07:09:01.239Z,3224
2019-02-24T07:10:01.873Z,2640
2019-02-24T07:11:03.391Z,3792
2019-02-24T07:12:02.842Z,4748
2019-02-24T07:13:03.245Z,3988
2019-02-24T07:14:03.486Z,2956
2019-02-24T07:15:03.898Z,2448
2019-02-24T07:16:05.144Z,2376
2019-02-24T07:17:04.892Z,2512
2019-02-24T07:18:05.598Z,3444
2019-02-24T07:19:06.008Z,4444
2019-02-24T07:20:06.998Z,5236
2019-02-24T07:21:07.963Z,4460
2019-02-24T07:22:08.121Z,2848
2019-02-24T07:23:08.255Z,4492
2019-02-24T07:24:08.954Z,12832
2019-02-24T07:25:09.928Z,24864
2019-02-24T07:26:10.341Z,39168
2019-02-24T07:27:12.030Z,39424
2019-02-24T07:28:13.004Z,35808
2019-02-24T07:29:14.006Z,35808
2019-02-24T07:30:26.184Z,33280
2019-02-24T07:31:27.013Z,40896
2019-02-24T07:32:27.981Z,45312
2019-02-24T07:33:28.690Z,44224
2019-02-24T07:34:28.937Z,43424
2019-02-24T07:35:29.436Z,54400
2019-02-24T07:36:30.685Z,56704
2019-02-24T07:37:31.380Z,57024
2019-02-24T07:38:32.090Z,42464
2019-02-24T07:39:32.788Z,30592
2019-02-24T07:40:32.929Z,29440
2019-02-24T07:41:33.769Z,16064
2019-02-24T07:42:34.187Z,6476
2019-02-24T07:43:34.880Z,4824
2019-02-24T07:44:35.851Z,4824
2019-02-24T07:45:36.852Z,6312
2019-02-24T07:46:37.547Z,10096
2019-02-24T07:47:37.724Z,15584
2019-02-24T07:48:38.416Z,14592
2019-02-24T07:49:38.554Z,11212
2019-02-24T07:50:39.248Z,13420
2019-02-24T07:51:40.460Z,11760
2019-02-24T07:52:40.875Z,5964
2019-02-24T07:53:41.289Z,5812
2019-02-24T07:54:42.705Z,6820
2019-02-24T07:55:42.840Z,7840
2019-02-24T07:56:43.268Z,8008
2019-02-24T07:57:44.680Z,7708
2019-02-24T07:58:45.378Z,8076
2019-02-24T07:59:45.793Z,9268
2019-02-24T08:00:47.490Z,11432
2019-02-24T08:01:47.924Z,16704
2019-02-24T08:02:48.617Z,20640
2019-02-24T08:03:49.352Z,19072
2019-02-24T08:04:49.775Z,18688
2019-02-24T08:05:51.019Z,20672
2019-02-24T08:06:51.159Z,17792
2019-02-24T08:07:52.134Z,14672
2019-02-24T08:08:53.383Z,20512
2019-02-24T08:09:53.800Z,20160
2019-02-24T08:10:54.217Z,21952
2019-02-24T08:11:54.503Z,35168
2019-02-24T08:12:55.196Z,49184
2019-02-24T08:13:55.336Z,42752
2019-02-24T08:14:56.030Z,23680
2019-02-24T08:15:56.751Z,10996
2019-02-24T08:16:57.169Z,10020
2019-02-24T08:17:58.149Z,12868
2019-02-24T08:18:58.569Z,11152
2019-02-24T08:19:59.595Z,15360
2019-02-24T08:21:00.965Z,18272
2019-02-24T08:22:00.480Z,14088
2019-02-24T08:23:00.965Z,24672
2019-02-24T08:24:01.705Z,26016
2019-02-24T08:25:02.685Z,30400
2019-02-24T08:26:02.825Z,31744
2019-02-24T08:27:04.521Z,21888
2019-02-24T08:28:05.214Z,11488
2019-02-24T08:29:05.629Z,9420
2019-02-24T08:30:06.326Z,10108
2019-02-24T08:31:08.023Z,11640
2019-02-24T08:32:08.845Z,14696
2019-02-24T08:33:10.097Z,19040
2019-02-24T08:34:10.102Z,21600
2019-02-24T08:35:10.524Z,22976
2019-02-24T08:36:11.561Z,18528
2019-02-24T08:37:11.980Z,14236
2019-02-24T08:38:12.399Z,9656
2019-02-24T08:39:13.371Z,5756
2019-02-24T08:40:13.797Z,5408
2019-02-24T08:41:14.496Z,5400
2019-02-24T08:42:15.041Z,5620
2019-02-24T08:43:15.734Z,9052
2019-02-24T08:44:16.710Z,16768
2019-02-24T08:45:16.851Z,22304
2019-02-24T08:46:17.271Z,20512
2019-02-24T08:47:18.685Z,18016
2019-02-24T08:48:20.936Z,21312
2019-02-24T08:49:21.081Z,26848
2019-02-24T08:50:22.068Z,31584
2019-02-24T08:51:25.288Z,36032
2019-02-24T08:52:26.409Z,40832
2019-02-24T08:53:27.107Z,49760
2019-02-24T08:54:27.533Z,57888
2019-02-24T08:55:27.675Z,59872
2019-02-24T08:56:28.095Z,63328
2019-02-24T08:57:29.517Z,66112
2019-02-24T08:58:29.660Z,62592
2019-02-24T08:59:30.108Z,64448
2019-02-24T09:00:31.265Z,68512
2019-02-24T09:01:32.701Z,73408
2019-02-24T09:02:33.317Z,70720
2019-02-24T09:03:34.465Z,66752
2019-02-24T09:04:35.441Z,65760
2019-02-24T09:05:35.592Z,70560
2019-02-24T09:06:36.575Z,72608
2019-02-24T09:07:36.278Z,70144
2019-02-24T09:08:37.707Z,70336
2019-02-24T09:09:38.686Z,65120
2019-02-24T09:10:39.392Z,63104
2019-02-24T09:11:40.101Z,62912
2019-02-24T09:12:40.932Z,70176
2019-02-24T09:13:41.360Z,72768
2019-02-24T09:14:42.511Z,66944
2019-02-24T09:15:44.220Z,45024
2019-02-24T09:16:44.120Z,12464
2019-02-24T09:17:44.836Z,20064
2019-02-24T09:18:45.845Z,56224
2019-02-24T09:19:46.565Z,40128
2019-02-24T09:20:46.716Z,7176
2019-02-24T09:21:47.978Z,6144
2019-02-24T09:22:49.384Z,6576
2019-02-24T09:23:50.367Z,11800
2019-02-24T09:24:51.073Z,12352
2019-02-24T09:25:52.329Z,38688
2019-02-24T09:26:52.472Z,66560
2019-02-24T09:27:53.172Z,68448
2019-02-24T09:28:54.155Z,66848
2019-02-24T09:29:54.586Z,68000
2019-02-24T09:31:07.109Z,51104
2019-02-24T09:32:07.446Z,45920
2019-02-24T09:33:08.473Z,53152
2019-02-24T09:34:08.896Z,56224
2019-02-24T09:35:10.608Z,43232
2019-02-24T09:36:10.594Z,42176
2019-02-24T09:37:11.315Z,39008
2019-02-24T09:38:11.505Z,29664
2019-02-24T09:39:11.931Z,32832
2019-02-24T09:40:12.915Z,41536
2019-02-24T09:41:13.394Z,46720
2019-02-24T09:42:14.237Z,47296
2019-02-24T09:43:15.498Z,40896
2019-02-24T09:44:15.476Z,37536
2019-02-24T09:45:15.706Z,35328
2019-02-24T09:46:16.129Z,37120
2019-02-24T09:47:16.857Z,30656
2019-02-24T09:48:18.009Z,19872
2019-02-24T09:49:18.710Z,16832
2019-02-24T09:50:18.918Z,31808
2019-02-24T09:51:19.340Z,54848
2019-02-24T09:52:20.390Z,47840
2019-02-24T09:53:20.534Z,30240
2019-02-24T09:54:21.952Z,32480
2019-02-24T09:55:22.652Z,29696
2019-02-24T09:56:22.399Z,20928
2019-02-24T09:57:23.375Z,22912
2019-02-24T09:58:23.796Z,20704
2019-02-24T09:59:24.990Z,17600
2019-02-24T10:00:25.722Z,16512
2019-02-24T10:01:25.858Z,19200
2019-02-24T10:02:26.416Z,19424
2019-02-24T10:03:28.111Z,22304
2019-02-24T10:04:28.812Z,21376
2019-02-24T10:05:29.234Z,21728
2019-02-24T10:06:29.949Z,19552
2019-02-24T10:07:30.658Z,17888
2019-02-24T10:08:31.667Z,19456
2019-02-24T10:09:32.369Z,22688
2019-02-24T10:10:33.346Z,28800
2019-02-24T10:11:34.370Z,20512
2019-02-24T10:12:34.924Z,24960
2019-02-24T10:13:36.186Z,18624
2019-02-24T10:14:36.331Z,38688
2019-02-24T10:15:37.037Z,35392
2019-02-24T10:16:37.738Z,44800
2019-02-24T10:17:38.441Z,52704
2019-02-24T10:18:38.864Z,45120
2019-02-24T10:19:39.575Z,48032
2019-02-24T10:20:40.282Z,62336
2019-02-24T10:21:41.255Z,70912
2019-02-24T10:22:42.661Z,67296
2019-02-24T10:23:43.361Z,62048
2019-02-24T10:24:43.504Z,66592
2019-02-24T10:25:44.758Z,66848
2019-02-24T10:26:45.735Z,67296
2019-02-24T10:27:45.441Z,66240
2019-02-24T10:28:48.332Z,64160
2019-02-24T10:29:46.756Z,66496
2019-02-24T10:30:47.736Z,67648
2019-02-24T10:31:48.445Z,67040
2019-02-24T10:32:48.568Z,65376
2019-02-24T10:33:49.078Z,64800
2019-02-24T10:34:49.497Z,65792
2019-02-24T10:35:50.923Z,59744
2019-02-24T10:36:51.349Z,64736
2019-02-24T10:37:52.053Z,61728
2019-02-24T10:38:53.310Z,64768
2019-02-24T10:39:53.738Z,62496
2019-02-24T10:40:54.442Z,62880
2019-02-24T10:41:55.708Z,62528
2019-02-24T10:42:55.844Z,62176
2019-02-24T10:43:56.545Z,64064
2019-02-24T10:44:57.249Z,64704
2019-02-24T10:45:57.678Z,56384
2019-02-24T10:46:58.382Z,62720
2019-02-24T10:47:59.107Z,63008
2019-02-24T10:49:05.468Z,47008
2019-02-24T10:49:11.187Z,46880
2019-02-24T10:50:11.627Z,52704
2019-02-24T10:51:12.334Z,61472
2019-02-24T10:52:13.313Z,37600
2019-02-24T10:53:14.464Z,52352
2019-02-24T10:54:15.895Z,56768
2019-02-24T10:55:16.877Z,57024
2019-02-24T10:56:18.326Z,56864
2019-02-24T10:57:19.475Z,57152
2019-02-24T10:58:22.150Z,54336
2019-02-24T10:59:20.129Z,51808
2019-02-24T11:00:21.010Z,48960
2019-02-24T11:01:35.346Z,49024
2019-02-24T11:02:35.913Z,51328
2019-02-24T11:03:37.065Z,51584
2019-02-24T11:04:38.047Z,49504
2019-02-24T11:05:38.245Z,43392
2019-02-24T11:06:39.248Z,39808
2019-02-24T11:07:39.718Z,40672
2019-02-24T11:08:40.146Z,25024
2019-02-24T11:09:41.295Z,36192
2019-02-24T11:10:43.003Z,33792
2019-02-24T11:11:43.153Z,33920
2019-02-24T11:12:44.545Z,35744
2019-02-24T11:13:44.975Z,35872
2019-02-24T11:14:45.410Z,28896
2019-02-24T11:15:46.711Z,21408
2019-02-24T11:16:47.135Z,17440
2019-02-24T11:17:47.882Z,17632
2019-02-24T11:18:48.586Z,17504
2019-02-24T11:19:48.736Z,12504
2019-02-24T11:20:49.169Z,11260
2019-02-24T11:21:50.320Z,10516
2019-02-24T11:22:51.177Z,10280
2019-02-24T11:23:52.157Z,10376
2019-02-24T11:24:53.700Z,9864
2019-02-24T11:25:53.402Z,9024
2019-02-24T11:26:54.097Z,8544
2019-02-24T11:27:54.796Z,8324
2019-02-24T11:28:55.215Z,8212
2019-02-24T11:29:55.953Z,8072
2019-02-24T11:30:56.690Z,7948
2019-02-24T11:31:59.132Z,7784
2019-02-24T11:32:58.243Z,7536
2019-02-24T11:33:58.945Z,7408
2019-02-24T11:34:59.641Z,7316
2019-02-24T11:36:00.765Z,7268
2019-02-24T11:37:01.185Z,7232
2019-02-24T11:38:01.603Z,7220
2019-02-24T11:39:02.022Z,7256
2019-02-24T11:40:03.174Z,7368
2019-02-24T11:41:04.148Z,7544
2019-02-24T11:42:04.568Z,7780
2019-02-24T11:43:05.693Z,8084
2019-02-24T11:44:06.670Z,8344
2019-02-24T11:45:07.093Z,8588
2019-02-24T11:46:07.818Z,8688
2019-02-24T11:47:08.235Z,8656
2019-02-24T11:48:09.213Z,8532
2019-02-24T11:49:10.353Z,8700
2019-02-24T11:50:10.771Z,8816
2019-02-24T11:51:11.479Z,8988
2019-02-24T11:52:11.898Z,9048
2019-02-24T11:53:12.783Z,9172
2019-02-24T11:54:14.033Z,9088
2019-02-24T11:55:14.253Z,9088
2019-02-24T11:56:15.950Z,8884
2019-02-24T11:57:16.375Z,8832
2019-02-24T11:58:17.624Z,8760
2019-02-24T11:59:18.075Z,8800
2019-02-24T12:00:18.772Z,8888
2019-02-24T12:01:19.190Z,9192
2019-02-24T12:02:20.330Z,9420
2019-02-24T12:03:21.446Z,9448
2019-02-24T12:04:20.891Z,9628
2019-02-24T12:05:22.033Z,9588
2019-02-24T12:06:23.173Z,9408
2019-02-24T12:07:24.312Z,9344
2019-02-24T12:08:26.005Z,9244
2019-02-24T12:09:26.425Z,9008
2019-02-24T12:10:26.883Z,8920
2019-02-24T12:11:28.305Z,8836
2019-02-24T12:12:28.722Z,8708
2019-02-24T12:13:29.832Z,8780
2019-02-24T12:14:29.977Z,8832
2019-02-24T12:15:30.669Z,8956
2019-02-24T12:16:31.089Z,9116
2019-02-24T12:17:31.507Z,9504
2019-02-24T12:18:33.017Z,9708
2019-02-24T12:19:33.993Z,9580
2019-02-24T12:20:34.415Z,9528
2019-02-24T12:21:35.390Z,9548
2019-02-24T12:22:35.367Z,9456
2019-02-24T12:23:36.229Z,9412
2019-02-24T12:24:36.957Z,9480
2019-02-24T12:25:37.374Z,9300
2019-02-24T12:26:38.067Z,9224
2019-02-24T12:27:38.810Z,9264
2019-02-24T12:28:39.226Z,9252
2019-02-24T12:29:40.643Z,9192
2019-02-24T12:30:41.060Z,8952
2019-02-24T12:31:41.480Z,8804
2019-02-24T12:32:42.486Z,8720
2019-02-24T12:33:42.884Z,8600
2019-02-24T12:34:44.138Z,8460
2019-02-24T12:35:44.833Z,8324
2019-02-24T12:36:45.803Z,8212
2019-02-24T12:37:45.951Z,7956
2019-02-24T12:38:47.086Z,7788
2019-02-24T12:39:47.784Z,7392
2019-02-24T12:40:48.203Z,7020
2019-02-24T12:41:49.384Z,6756
2019-02-24T12:42:50.083Z,6520
2019-02-24T12:43:50.411Z,6392
2019-02-24T12:44:51.944Z,6304
2019-02-24T12:45:51.911Z,6208
2019-02-24T12:46:52.333Z,6108
2019-02-24T12:47:53.750Z,5996
2019-02-24T12:48:54.451Z,5892
2019-02-24T12:50:07.222Z,5808
2019-02-24T12:51:08.333Z,5776
2019-02-24T12:52:09.030Z,5764
2019-02-24T12:53:10.447Z,5796
2019-02-24T12:54:11.144Z,5856
2019-02-24T12:55:11.855Z,5948
2019-02-24T12:56:14.833Z,6032
2019-02-24T12:57:13.686Z,6164
2019-02-24T12:58:14.660Z,6312
2019-02-24T12:59:14.808Z,6416
2019-02-24T13:00:16.333Z,6480
2019-02-24T13:01:15.895Z,6536
2019-02-24T13:02:16.587Z,6632
2019-02-24T13:03:29.354Z,6720
2019-02-24T13:04:30.933Z,6776
2019-02-24T13:05:31.189Z,6720
2019-02-24T13:06:31.881Z,6620
2019-02-24T13:07:32.299Z,6516
2019-02-24T13:08:33.718Z,6412
2019-02-24T13:09:36.006Z,6344
2019-02-24T13:10:36.699Z,6244
2019-02-24T13:11:37.692Z,6160
2019-02-24T13:12:38.398Z,6088
2019-02-24T13:13:38.542Z,6056
2019-02-24T13:14:39.393Z,6016
2019-02-24T13:15:40.368Z,5968
2019-02-24T13:16:41.115Z,5960
2019-02-24T13:17:41.266Z,5896
2019-02-24T13:18:42.410Z,5852
2019-02-24T13:19:43.658Z,5828
2019-02-24T13:20:43.800Z,5832
2019-02-24T13:21:47.373Z,5844
2019-02-24T13:22:46.073Z,5860
2019-02-24T13:23:46.770Z,5872
2019-02-24T13:24:47.899Z,5920
2019-02-24T13:25:49.166Z,5908
2019-02-24T13:26:49.162Z,5792
2019-02-24T13:27:49.579Z,5648
2019-02-24T13:28:52.648Z,5464
2019-02-24T13:29:52.901Z,5280
2019-02-24T13:30:52.875Z,5144
2019-02-24T13:31:53.846Z,4996
2019-02-24T13:32:54.259Z,4924
2019-02-24T13:33:55.397Z,4912
2019-02-24T13:34:56.221Z,4960
2019-02-24T13:35:56.638Z,5036
2019-02-24T13:36:57.332Z,5128
2019-02-24T13:37:58.029Z,5228
2019-02-24T13:38:59.986Z,5312
2019-02-24T13:40:01.170Z,5360
2019-02-24T13:41:01.868Z,5384
2019-02-24T13:42:02.563Z,5400
2019-02-24T13:43:02.856Z,5376
2019-02-24T13:44:03.117Z,5340
2019-02-24T13:45:04.518Z,5280
2019-02-24T13:46:05.506Z,5232
2019-02-24T13:47:05.928Z,5196
2019-02-24T13:48:07.341Z,5196
2019-02-24T13:49:08.591Z,5160
2019-02-24T13:50:09.010Z,5088
2019-02-24T13:51:09.999Z,4996
2019-02-24T13:52:09.973Z,4916
2019-02-24T13:53:10.675Z,4876
2019-02-24T13:54:12.091Z,4896
2019-02-24T13:55:12.828Z,4944
2019-02-24T13:56:13.009Z,4980
2019-02-24T13:57:13.425Z,5004